sensor_id;sensor_type;location;lat;lon;timestamp;P1;durP1;ratioP1;P2;durP2;ratioP2
22417;SDS011;11376;50.932;4.442;2023-08-07T00:00:34;10.80;;;2.00;;
22417;SDS011;11376;50.932;4.442;2023-08-07T00:03:00;12.73;;;1.90;;
22417;SDS011;11376;50.932;4.442;2023-08-07T00:05:26;9.77;;;1.93;;
22417;SDS011;11376;50.932;4.442;2023-08-07T00:07:51;9.57;;;1.83;;
22417;SDS011;11376;50.932;4.442;2023-08-07T00:10:17;7.70;;;1.97;;
22417;SDS011;11376;50.932;4.442;2023-08-07T00:12:43;7.87;;;2.07;;
22417;SDS011;11376;50.932;4.442;2023-08-07T00:15:09;10.60;;;1.93;;
22417;SDS011;11376;50.932;4.442;2023-08-07T00:17:36;10.70;;;1.90;;
22417;SDS011;11376;50.932;4.442;2023-08-07T00:32:10;8.05;;;2.05;;
22417;SDS011;11376;50.932;4.442;2023-08-07T00:37:02;7.50;;;1.80;;
22417;SDS011;11376;50.932;4.442;2023-08-07T00:39:28;9.20;;;1.90;;
22417;SDS011;11376;50.932;4.442;2023-08-07T00:41:54;6.60;;;1.40;;
22417;SDS011;11376;50.932;4.442;2023-08-07T00:46:45;9.10;;;1.80;;
22417;SDS011;11376;50.932;4.442;2023-08-07T01:52:47;5.20;;;1.10;;
22417;SDS011;11376;50.932;4.442;2023-08-07T07:13:45;5.43;;;1.80;;
22417;SDS011;11376;50.932;4.442;2023-08-07T07:16:11;7.22;;;1.77;;
22417;SDS011;11376;50.932;4.442;2023-08-07T07:18:38;7.82;;;1.88;;
22417;SDS011;11376;50.932;4.442;2023-08-07T07:21:04;5.85;;;1.60;;
22417;SDS011;11376;50.932;4.442;2023-08-07T07:23:30;7.53;;;1.88;;
22417;SDS011;11376;50.932;4.442;2023-08-07T07:25:56;10.70;;;1.98;;
22417;SDS011;11376;50.932;4.442;2023-08-07T07:28:22;12.85;;;1.70;;
22417;SDS011;11376;50.932;4.442;2023-08-07T07:30:51;8.73;;;1.85;;
22417;SDS011;11376;50.932;4.442;2023-08-07T07:33:17;7.35;;;1.50;;
22417;SDS011;11376;50.932;4.442;2023-08-07T07:35:43;6.88;;;1.70;;
22417;SDS011;11376;50.932;4.442;2023-08-07T07:38:09;8.98;;;1.80;;
22417;SDS011;11376;50.932;4.442;2023-08-07T07:40:35;8.00;;;1.80;;
22417;SDS011;11376;50.932;4.442;2023-08-07T07:43:01;8.75;;;1.65;;
22417;SDS011;11376;50.932;4.442;2023-08-07T07:45:27;9.00;;;1.48;;
22417;SDS011;11376;50.932;4.442;2023-08-07T07:47:53;9.32;;;1.52;;
22417;SDS011;11376;50.932;4.442;2023-08-07T07:50:19;9.20;;;1.70;;
22417;SDS011;11376;50.932;4.442;2023-08-07T07:52:45;14.60;;;2.08;;
22417;SDS011;11376;50.932;4.442;2023-08-07T07:55:10;6.57;;;1.95;;
22417;SDS011;11376;50.932;4.442;2023-08-07T07:57:38;8.32;;;1.90;;
22417;SDS011;11376;50.932;4.442;2023-08-07T08:00:04;7.88;;;1.67;;
22417;SDS011;11376;50.932;4.442;2023-08-07T08:02:35;9.73;;;1.60;;
22417;SDS011;11376;50.932;4.442;2023-08-07T08:05:01;5.68;;;1.90;;
22417;SDS011;11376;50.932;4.442;2023-08-07T08:07:27;7.90;;;1.90;;
22417;SDS011;11376;50.932;4.442;2023-08-07T08:09:53;6.43;;;1.55;;
22417;SDS011;11376;50.932;4.442;2023-08-07T08:12:21;8.32;;;1.98;;
22417;SDS011;11376;50.932;4.442;2023-08-07T08:14:47;6.55;;;1.75;;
22417;SDS011;11376;50.932;4.442;2023-08-07T08:17:13;8.98;;;2.00;;
22417;SDS011;11376;50.932;4.442;2023-08-07T08:19:39;10.98;;;2.05;;
22417;SDS011;11376;50.932;4.442;2023-08-07T08:22:04;7.85;;;1.70;;
22417;SDS011;11376;50.932;4.442;2023-08-07T08:24:31;5.43;;;2.10;;
22417;SDS011;11376;50.932;4.442;2023-08-07T08:26:57;9.40;;;2.30;;
22417;SDS011;11376;50.932;4.442;2023-08-07T08:29:22;5.95;;;1.65;;
22417;SDS011;11376;50.932;4.442;2023-08-07T08:31:48;9.65;;;2.30;;
22417;SDS011;11376;50.932;4.442;2023-08-07T08:34:14;7.45;;;1.73;;
22417;SDS011;11376;50.932;4.442;2023-08-07T08:36:40;6.53;;;1.58;;
22417;SDS011;11376;50.932;4.442;2023-08-07T08:39:05;6.97;;;1.77;;
22417;SDS011;11376;50.932;4.442;2023-08-07T08:41:31;8.00;;;1.90;;
22417;SDS011;11376;50.932;4.442;2023-08-07T08:43:57;5.55;;;1.65;;
22417;SDS011;11376;50.932;4.442;2023-08-07T08:46:26;6.97;;;1.83;;
22417;SDS011;11376;50.932;4.442;2023-08-07T08:48:56;6.38;;;1.95;;
22417;SDS011;11376;50.932;4.442;2023-08-07T08:51:24;9.60;;;2.10;;
22417;SDS011;11376;50.932;4.442;2023-08-07T08:53:51;9.40;;;2.35;;
22417;SDS011;11376;50.932;4.442;2023-08-07T08:56:19;7.88;;;1.90;;
22417;SDS011;11376;50.932;4.442;2023-08-07T08:58:47;10.10;;;1.95;;
22417;SDS011;11376;50.932;4.442;2023-08-07T09:01:16;5.20;;;1.60;;
22417;SDS011;11376;50.932;4.442;2023-08-07T09:03:44;9.02;;;1.73;;
22417;SDS011;11376;50.932;4.442;2023-08-07T09:06:11;4.57;;;1.75;;
22417;SDS011;11376;50.932;4.442;2023-08-07T09:08:37;7.50;;;1.65;;
22417;SDS011;11376;50.932;4.442;2023-08-07T09:11:08;7.82;;;1.65;;
22417;SDS011;11376;50.932;4.442;2023-08-07T09:13:37;3.72;;;1.45;;
22417;SDS011;11376;50.932;4.442;2023-08-07T09:16:04;6.68;;;1.67;;
22417;SDS011;11376;50.932;4.442;2023-08-07T09:18:33;5.07;;;1.33;;
22417;SDS011;11376;50.932;4.442;2023-08-07T09:21:00;5.75;;;1.60;;
22417;SDS011;11376;50.932;4.442;2023-08-07T09:23:26;3.90;;;1.60;;
22417;SDS011;11376;50.932;4.442;2023-08-07T09:26:04;8.13;;;1.65;;
22417;SDS011;11376;50.932;4.442;2023-08-07T09:28:31;5.82;;;1.73;;
22417;SDS011;11376;50.932;4.442;2023-08-07T09:30:58;7.00;;;1.65;;
22417;SDS011;11376;50.932;4.442;2023-08-07T09:33:26;5.53;;;1.23;;
22417;SDS011;11376;50.932;4.442;2023-08-07T09:35:57;6.38;;;1.55;;
22417;SDS011;11376;50.932;4.442;2023-08-07T09:38:29;3.03;;;1.40;;
22417;SDS011;11376;50.932;4.442;2023-08-07T09:40:58;4.20;;;1.27;;
22417;SDS011;11376;50.932;4.442;2023-08-07T09:43:24;4.15;;;1.42;;
22417;SDS011;11376;50.932;4.442;2023-08-07T09:45:50;6.78;;;1.27;;
22417;SDS011;11376;50.932;4.442;2023-08-07T09:48:20;9.57;;;1.77;;
22417;SDS011;11376;50.932;4.442;2023-08-07T09:50:48;5.97;;;1.50;;
22417;SDS011;11376;50.932;4.442;2023-08-07T09:53:14;9.65;;;1.70;;
22417;SDS011;11376;50.932;4.442;2023-08-07T09:55:40;4.88;;;1.65;;
22417;SDS011;11376;50.932;4.442;2023-08-07T09:58:07;4.60;;;1.70;;
22417;SDS011;11376;50.932;4.442;2023-08-07T10:00:34;4.30;;;1.50;;
22417;SDS011;11376;50.932;4.442;2023-08-07T10:03:00;5.90;;;1.50;;
22417;SDS011;11376;50.932;4.442;2023-08-07T10:05:28;4.82;;;1.30;;
22417;SDS011;11376;50.932;4.442;2023-08-07T10:07:53;6.40;;;1.55;;
22417;SDS011;11376;50.932;4.442;2023-08-07T10:10:20;5.45;;;1.50;;
22417;SDS011;11376;50.932;4.442;2023-08-07T10:12:46;4.78;;;1.35;;
22417;SDS011;11376;50.932;4.442;2023-08-07T10:15:14;3.25;;;1.20;;
22417;SDS011;11376;50.932;4.442;2023-08-07T10:17:40;5.57;;;1.40;;
22417;SDS011;11376;50.932;4.442;2023-08-07T10:20:06;4.30;;;1.30;;
22417;SDS011;11376;50.932;4.442;2023-08-07T10:22:33;3.55;;;1.23;;
22417;SDS011;11376;50.932;4.442;2023-08-07T10:25:03;3.15;;;1.00;;
22417;SDS011;11376;50.932;4.442;2023-08-07T10:27:31;3.53;;;1.13;;
22417;SDS011;11376;50.932;4.442;2023-08-07T10:30:01;2.60;;;1.20;;
22417;SDS011;11376;50.932;4.442;2023-08-07T10:32:29;5.00;;;1.20;;
22417;SDS011;11376;50.932;4.442;2023-08-07T10:34:56;7.75;;;1.70;;
22417;SDS011;11376;50.932;4.442;2023-08-07T10:37:41;3.67;;;1.02;;
22417;SDS011;11376;50.932;4.442;2023-08-07T10:40:09;7.18;;;1.55;;
22417;SDS011;11376;50.932;4.442;2023-08-07T10:45:25;4.22;;;1.15;;
22417;SDS011;11376;50.932;4.442;2023-08-07T10:50:27;3.05;;;1.00;;
22417;SDS011;11376;50.932;4.442;2023-08-07T10:52:59;5.50;;;1.17;;
22417;SDS011;11376;50.932;4.442;2023-08-07T10:55:26;4.63;;;1.27;;
22417;SDS011;11376;50.932;4.442;2023-08-07T10:57:52;6.60;;;1.45;;
22417;SDS011;11376;50.932;4.442;2023-08-07T11:00:21;3.85;;;1.10;;
22417;SDS011;11376;50.932;4.442;2023-08-07T11:02:52;2.47;;;1.08;;
22417;SDS011;11376;50.932;4.442;2023-08-07T11:05:18;3.72;;;1.20;;
22417;SDS011;11376;50.932;4.442;2023-08-07T11:07:45;3.90;;;1.10;;
22417;SDS011;11376;50.932;4.442;2023-08-07T11:10:12;4.47;;;1.20;;
22417;SDS011;11376;50.932;4.442;2023-08-07T11:12:43;2.40;;;1.00;;
22417;SDS011;11376;50.932;4.442;2023-08-07T11:15:11;3.78;;;1.23;;
22417;SDS011;11376;50.932;4.442;2023-08-07T11:17:38;3.35;;;1.35;;
22417;SDS011;11376;50.932;4.442;2023-08-07T11:20:06;2.65;;;0.93;;
22417;SDS011;11376;50.932;4.442;2023-08-07T11:22:32;3.75;;;1.30;;
22417;SDS011;11376;50.932;4.442;2023-08-07T11:24:58;3.28;;;1.15;;
22417;SDS011;11376;50.932;4.442;2023-08-07T11:27:24;4.40;;;1.25;;
22417;SDS011;11376;50.932;4.442;2023-08-07T11:29:50;3.00;;;1.15;;
22417;SDS011;11376;50.932;4.442;2023-08-07T11:32:16;5.47;;;1.30;;
22417;SDS011;11376;50.932;4.442;2023-08-07T11:34:49;6.03;;;1.40;;
22417;SDS011;11376;50.932;4.442;2023-08-07T11:37:18;7.93;;;1.30;;
22417;SDS011;11376;50.932;4.442;2023-08-07T11:39:44;2.50;;;1.00;;
22417;SDS011;11376;50.932;4.442;2023-08-07T11:42:10;2.90;;;1.02;;
22417;SDS011;11376;50.932;4.442;2023-08-07T11:44:36;6.78;;;1.20;;
22417;SDS011;11376;50.932;4.442;2023-08-07T11:47:02;2.47;;;1.10;;
22417;SDS011;11376;50.932;4.442;2023-08-07T11:49:28;2.47;;;0.98;;
22417;SDS011;11376;50.932;4.442;2023-08-07T11:51:54;3.70;;;1.10;;
22417;SDS011;11376;50.932;4.442;2023-08-07T11:54:20;3.15;;;1.15;;
22417;SDS011;11376;50.932;4.442;2023-08-07T11:56:47;5.00;;;1.20;;
22417;SDS011;11376;50.932;4.442;2023-08-07T11:59:15;7.95;;;1.42;;
22417;SDS011;11376;50.932;4.442;2023-08-07T12:01:42;8.00;;;1.40;;
22417;SDS011;11376;50.932;4.442;2023-08-07T12:04:08;7.20;;;1.58;;
22417;SDS011;11376;50.932;4.442;2023-08-07T12:06:35;5.60;;;1.35;;
22417;SDS011;11376;50.932;4.442;2023-08-07T12:09:02;4.38;;;1.30;;
22417;SDS011;11376;50.932;4.442;2023-08-07T12:11:31;3.30;;;1.10;;
22417;SDS011;11376;50.932;4.442;2023-08-07T12:13:59;5.72;;;1.58;;
22417;SDS011;11376;50.932;4.442;2023-08-07T12:16:26;3.60;;;1.05;;
22417;SDS011;11376;50.932;4.442;2023-08-07T12:18:58;4.63;;;1.10;;
22417;SDS011;11376;50.932;4.442;2023-08-07T12:21:24;7.72;;;1.90;;
22417;SDS011;11376;50.932;4.442;2023-08-07T12:23:55;7.03;;;1.15;;
22417;SDS011;11376;50.932;4.442;2023-08-07T12:26:22;5.50;;;1.30;;
22417;SDS011;11376;50.932;4.442;2023-08-07T12:28:48;4.40;;;1.40;;
22417;SDS011;11376;50.932;4.442;2023-08-07T12:31:14;5.03;;;1.17;;
22417;SDS011;11376;50.932;4.442;2023-08-07T12:33:40;3.05;;;1.13;;
22417;SDS011;11376;50.932;4.442;2023-08-07T12:36:05;6.38;;;1.10;;
22417;SDS011;11376;50.932;4.442;2023-08-07T12:38:33;4.68;;;1.30;;
22417;SDS011;11376;50.932;4.442;2023-08-07T12:40:58;5.05;;;1.30;;
22417;SDS011;11376;50.932;4.442;2023-08-07T12:43:25;3.65;;;1.10;;
22417;SDS011;11376;50.932;4.442;2023-08-07T12:45:51;6.97;;;1.30;;
22417;SDS011;11376;50.932;4.442;2023-08-07T12:48:18;4.32;;;0.95;;
22417;SDS011;11376;50.932;4.442;2023-08-07T12:50:44;3.33;;;1.00;;
22417;SDS011;11376;50.932;4.442;2023-08-07T12:53:10;2.40;;;0.73;;
22417;SDS011;11376;50.932;4.442;2023-08-07T12:55:36;4.18;;;0.90;;
22417;SDS011;11376;50.932;4.442;2023-08-07T12:58:02;4.63;;;0.98;;
22417;SDS011;11376;50.932;4.442;2023-08-07T13:00:27;1.90;;;0.80;;
22417;SDS011;11376;50.932;4.442;2023-08-07T13:02:53;3.10;;;0.90;;
22417;SDS011;11376;50.932;4.442;2023-08-07T13:05:20;3.72;;;1.20;;
22417;SDS011;11376;50.932;4.442;2023-08-07T13:07:47;6.60;;;0.95;;
22417;SDS011;11376;50.932;4.442;2023-08-07T13:10:14;5.35;;;1.10;;
22417;SDS011;11376;50.932;4.442;2023-08-07T13:12:42;3.00;;;0.70;;
22417;SDS011;11376;50.932;4.442;2023-08-07T13:15:10;2.42;;;0.77;;
22417;SDS011;11376;50.932;4.442;2023-08-07T13:17:38;1.63;;;0.52;;
22417;SDS011;11376;50.932;4.442;2023-08-07T13:20:05;1.65;;;0.70;;
22417;SDS011;11376;50.932;4.442;2023-08-07T13:22:35;4.13;;;0.82;;
22417;SDS011;11376;50.932;4.442;2023-08-07T13:25:01;3.17;;;0.82;;
22417;SDS011;11376;50.932;4.442;2023-08-07T13:27:30;2.67;;;0.70;;
22417;SDS011;11376;50.932;4.442;2023-08-07T13:29:57;3.47;;;0.80;;
22417;SDS011;11376;50.932;4.442;2023-08-07T13:32:22;3.15;;;0.80;;
22417;SDS011;11376;50.932;4.442;2023-08-07T13:34:48;3.97;;;0.90;;
22417;SDS011;11376;50.932;4.442;2023-08-07T13:37:14;3.00;;;0.70;;
22417;SDS011;11376;50.932;4.442;2023-08-07T13:39:40;2.10;;;0.70;;
22417;SDS011;11376;50.932;4.442;2023-08-07T13:42:06;3.17;;;0.70;;
22417;SDS011;11376;50.932;4.442;2023-08-07T13:44:32;2.28;;;0.82;;
22417;SDS011;11376;50.932;4.442;2023-08-07T13:46:58;6.32;;;0.70;;
22417;SDS011;11376;50.932;4.442;2023-08-07T13:49:24;1.92;;;0.60;;
22417;SDS011;11376;50.932;4.442;2023-08-07T13:51:50;1.80;;;0.80;;
22417;SDS011;11376;50.932;4.442;2023-08-07T13:54:16;2.10;;;0.50;;
22417;SDS011;11376;50.932;4.442;2023-08-07T13:56:42;2.40;;;0.77;;
22417;SDS011;11376;50.932;4.442;2023-08-07T13:59:08;2.83;;;1.00;;
22417;SDS011;11376;50.932;4.442;2023-08-07T14:01:34;2.97;;;0.77;;
22417;SDS011;11376;50.932;4.442;2023-08-07T14:04:01;3.63;;;0.70;;
22417;SDS011;11376;50.932;4.442;2023-08-07T14:06:27;3.92;;;0.60;;
22417;SDS011;11376;50.932;4.442;2023-08-07T14:08:53;1.90;;;0.60;;
22417;SDS011;11376;50.932;4.442;2023-08-07T14:11:19;1.45;;;0.50;;
22417;SDS011;11376;50.932;4.442;2023-08-07T14:13:45;1.40;;;0.60;;
22417;SDS011;11376;50.932;4.442;2023-08-07T14:16:12;4.30;;;0.80;;
22417;SDS011;11376;50.932;4.442;2023-08-07T14:18:38;3.63;;;0.70;;
22417;SDS011;11376;50.932;4.442;2023-08-07T14:21:04;2.50;;;0.60;;
22417;SDS011;11376;50.932;4.442;2023-08-07T14:23:30;4.65;;;0.70;;
22417;SDS011;11376;50.932;4.442;2023-08-07T14:25:55;2.58;;;0.52;;
22417;SDS011;11376;50.932;4.442;2023-08-07T14:28:21;2.85;;;0.70;;
22417;SDS011;11376;50.932;4.442;2023-08-07T14:30:47;3.70;;;0.57;;
22417;SDS011;11376;50.932;4.442;2023-08-07T14:33:13;3.08;;;0.70;;
22417;SDS011;11376;50.932;4.442;2023-08-07T14:35:39;2.80;;;0.80;;
22417;SDS011;11376;50.932;4.442;2023-08-07T14:38:04;4.40;;;0.52;;
22417;SDS011;11376;50.932;4.442;2023-08-07T14:40:30;3.30;;;0.57;;
22417;SDS011;11376;50.932;4.442;2023-08-07T14:42:56;3.15;;;0.68;;
22417;SDS011;11376;50.932;4.442;2023-08-07T14:45:22;6.00;;;0.60;;
22417;SDS011;11376;50.932;4.442;2023-08-07T14:47:49;2.17;;;0.60;;
22417;SDS011;11376;50.932;4.442;2023-08-07T14:50:15;5.38;;;0.70;;
22417;SDS011;11376;50.932;4.442;2023-08-07T14:52:44;1.85;;;0.45;;
22417;SDS011;11376;50.932;4.442;2023-08-07T14:55:10;1.33;;;0.47;;
22417;SDS011;11376;50.932;4.442;2023-08-07T14:57:35;2.40;;;0.50;;
22417;SDS011;11376;50.932;4.442;2023-08-07T15:00:01;4.07;;;0.60;;
22417;SDS011;11376;50.932;4.442;2023-08-07T15:02:27;2.60;;;0.60;;
22417;SDS011;11376;50.932;4.442;2023-08-07T15:04:53;2.47;;;0.60;;
22417;SDS011;11376;50.932;4.442;2023-08-07T15:07:19;2.00;;;0.50;;
22417;SDS011;11376;50.932;4.442;2023-08-07T15:09:44;3.65;;;0.63;;
22417;SDS011;11376;50.932;4.442;2023-08-07T15:12:10;4.88;;;1.67;;
22417;SDS011;11376;50.932;4.442;2023-08-07T15:14:36;4.75;;;1.83;;
22417;SDS011;11376;50.932;4.442;2023-08-07T15:17:02;2.95;;;0.90;;
22417;SDS011;11376;50.932;4.442;2023-08-07T15:19:28;4.50;;;0.75;;
22417;SDS011;11376;50.932;4.442;2023-08-07T15:21:54;2.45;;;0.70;;
22417;SDS011;11376;50.932;4.442;2023-08-07T15:24:20;3.03;;;0.63;;
22417;SDS011;11376;50.932;4.442;2023-08-07T15:26:45;1.80;;;0.60;;
22417;SDS011;11376;50.932;4.442;2023-08-07T15:29:11;2.72;;;0.60;;
22417;SDS011;11376;50.932;4.442;2023-08-07T15:31:37;3.33;;;0.60;;
22417;SDS011;11376;50.932;4.442;2023-08-07T15:34:03;1.45;;;0.40;;
22417;SDS011;11376;50.932;4.442;2023-08-07T15:36:29;2.33;;;0.60;;
22417;SDS011;11376;50.932;4.442;2023-08-07T15:38:55;2.22;;;0.60;;
22417;SDS011;11376;50.932;4.442;2023-08-07T15:41:21;2.03;;;0.40;;
22417;SDS011;11376;50.932;4.442;2023-08-07T15:43:47;2.42;;;0.50;;
22417;SDS011;11376;50.932;4.442;2023-08-07T15:46:15;1.73;;;0.40;;
22417;SDS011;11376;50.932;4.442;2023-08-07T15:48:41;1.73;;;0.57;;
22417;SDS011;11376;50.932;4.442;2023-08-07T15:51:07;2.25;;;0.60;;
22417;SDS011;11376;50.932;4.442;2023-08-07T15:53:33;3.28;;;0.60;;
22417;SDS011;11376;50.932;4.442;2023-08-07T15:55:59;3.22;;;0.70;;
22417;SDS011;11376;50.932;4.442;2023-08-07T15:58:24;4.03;;;0.43;;
22417;SDS011;11376;50.932;4.442;2023-08-07T16:00:50;1.98;;;0.60;;
22417;SDS011;11376;50.932;4.442;2023-08-07T16:03:16;1.92;;;0.47;;
22417;SDS011;11376;50.932;4.442;2023-08-07T16:05:42;3.80;;;0.65;;
22417;SDS011;11376;50.932;4.442;2023-08-07T16:08:09;4.80;;;0.40;;
22417;SDS011;11376;50.932;4.442;2023-08-07T16:10:35;4.28;;;0.82;;
22417;SDS011;11376;50.932;4.442;2023-08-07T16:13:03;2.85;;;0.60;;
22417;SDS011;11376;50.932;4.442;2023-08-07T16:15:29;3.88;;;0.75;;
22417;SDS011;11376;50.932;4.442;2023-08-07T16:17:54;7.97;;;0.95;;
22417;SDS011;11376;50.932;4.442;2023-08-07T16:20:22;2.95;;;0.80;;
22417;SDS011;11376;50.932;4.442;2023-08-07T16:22:48;3.28;;;0.68;;
22417;SDS011;11376;50.932;4.442;2023-08-07T16:25:14;3.60;;;1.00;;
22417;SDS011;11376;50.932;4.442;2023-08-07T16:27:39;5.30;;;1.00;;
22417;SDS011;11376;50.932;4.442;2023-08-07T16:30:05;5.07;;;0.75;;
22417;SDS011;11376;50.932;4.442;2023-08-07T16:32:33;3.40;;;0.93;;
22417;SDS011;11376;50.932;4.442;2023-08-07T16:35:00;3.70;;;0.80;;
22417;SDS011;11376;50.932;4.442;2023-08-07T16:37:26;2.97;;;0.93;;
22417;SDS011;11376;50.932;4.442;2023-08-07T16:39:53;1.88;;;0.88;;
22417;SDS011;11376;50.932;4.442;2023-08-07T16:42:19;2.80;;;0.88;;
22417;SDS011;11376;50.932;4.442;2023-08-07T16:44:45;2.30;;;0.85;;
22417;SDS011;11376;50.932;4.442;2023-08-07T16:47:11;2.40;;;0.90;;
22417;SDS011;11376;50.932;4.442;2023-08-07T16:49:36;3.80;;;1.00;;
22417;SDS011;11376;50.932;4.442;2023-08-07T16:52:02;4.50;;;1.00;;
22417;SDS011;11376;50.932;4.442;2023-08-07T16:54:29;3.90;;;1.00;;
22417;SDS011;11376;50.932;4.442;2023-08-07T16:56:55;3.67;;;1.00;;
22417;SDS011;11376;50.932;4.442;2023-08-07T16:59:21;2.95;;;0.90;;
22417;SDS011;11376;50.932;4.442;2023-08-07T17:01:47;4.28;;;1.00;;
22417;SDS011;11376;50.932;4.442;2023-08-07T17:04:13;3.42;;;1.00;;
22417;SDS011;11376;50.932;4.442;2023-08-07T17:06:39;3.70;;;0.90;;
22417;SDS011;11376;50.932;4.442;2023-08-07T17:09:04;1.63;;;0.70;;
22417;SDS011;11376;50.932;4.442;2023-08-07T17:11:30;2.05;;;0.60;;
22417;SDS011;11376;50.932;4.442;2023-08-07T17:13:59;5.32;;;1.00;;
22417;SDS011;11376;50.932;4.442;2023-08-07T17:16:25;5.47;;;1.00;;
22417;SDS011;11376;50.932;4.442;2023-08-07T17:18:52;4.78;;;1.08;;
22417;SDS011;11376;50.932;4.442;2023-08-07T17:21:19;4.85;;;1.00;;
22417;SDS011;11376;50.932;4.442;2023-08-07T17:23:46;3.35;;;0.90;;
22417;SDS011;11376;50.932;4.442;2023-08-07T17:26:11;4.72;;;1.00;;
22417;SDS011;11376;50.932;4.442;2023-08-07T17:28:37;5.13;;;1.00;;
22417;SDS011;11376;50.932;4.442;2023-08-07T17:31:03;2.17;;;0.70;;
22417;SDS011;11376;50.932;4.442;2023-08-07T17:33:30;2.20;;;0.95;;
22417;SDS011;11376;50.932;4.442;2023-08-07T17:35:55;7.05;;;1.05;;
22417;SDS011;11376;50.932;4.442;2023-08-07T17:38:22;3.45;;;0.82;;
22417;SDS011;11376;50.932;4.442;2023-08-07T17:40:48;3.75;;;1.08;;
22417;SDS011;11376;50.932;4.442;2023-08-07T17:43:17;3.92;;;1.05;;
22417;SDS011;11376;50.932;4.442;2023-08-07T17:45:43;4.00;;;0.75;;
22417;SDS011;11376;50.932;4.442;2023-08-07T17:48:08;2.97;;;1.00;;
22417;SDS011;11376;50.932;4.442;2023-08-07T17:50:34;3.92;;;1.20;;
22417;SDS011;11376;50.932;4.442;2023-08-07T17:53:00;6.15;;;2.05;;
22417;SDS011;11376;50.932;4.442;2023-08-07T17:55:25;3.42;;;1.38;;
22417;SDS011;11376;50.932;4.442;2023-08-07T17:57:52;3.78;;;1.15;;
22417;SDS011;11376;50.932;4.442;2023-08-07T18:00:18;4.25;;;0.95;;
22417;SDS011;11376;50.932;4.442;2023-08-07T18:02:44;4.15;;;1.00;;
22417;SDS011;11376;50.932;4.442;2023-08-07T18:05:09;2.75;;;0.90;;
22417;SDS011;11376;50.932;4.442;2023-08-07T18:07:36;1.75;;;0.60;;
22417;SDS011;11376;50.932;4.442;2023-08-07T18:10:03;2.03;;;0.90;;
22417;SDS011;11376;50.932;4.442;2023-08-07T18:12:29;3.13;;;0.80;;
22417;SDS011;11376;50.932;4.442;2023-08-07T18:14:54;3.15;;;0.90;;
22417;SDS011;11376;50.932;4.442;2023-08-07T18:17:22;4.53;;;0.88;;
22417;SDS011;11376;50.932;4.442;2023-08-07T18:19:48;3.78;;;0.82;;
22417;SDS011;11376;50.932;4.442;2023-08-07T18:22:14;6.72;;;0.90;;
22417;SDS011;11376;50.932;4.442;2023-08-07T18:24:40;2.47;;;0.80;;
22417;SDS011;11376;50.932;4.442;2023-08-07T18:27:06;5.80;;;1.10;;
22417;SDS011;11376;50.932;4.442;2023-08-07T18:29:31;4.13;;;1.00;;
22417;SDS011;11376;50.932;4.442;2023-08-07T18:31:58;2.45;;;0.90;;
22417;SDS011;11376;50.932;4.442;2023-08-07T18:34:24;3.88;;;1.10;;
22417;SDS011;11376;50.932;4.442;2023-08-07T18:36:49;4.30;;;1.17;;
22417;SDS011;11376;50.932;4.442;2023-08-07T18:39:15;3.25;;;1.00;;
22417;SDS011;11376;50.932;4.442;2023-08-07T18:41:41;4.13;;;0.85;;
22417;SDS011;11376;50.932;4.442;2023-08-07T18:44:07;2.72;;;0.90;;
22417;SDS011;11376;50.932;4.442;2023-08-07T18:46:33;5.18;;;1.20;;
22417;SDS011;11376;50.932;4.442;2023-08-07T18:48:59;4.00;;;1.02;;
22417;SDS011;11376;50.932;4.442;2023-08-07T18:51:25;2.92;;;1.02;;
22417;SDS011;11376;50.932;4.442;2023-08-07T18:53:51;4.00;;;1.13;;
22417;SDS011;11376;50.932;4.442;2023-08-07T18:56:17;2.90;;;1.00;;
22417;SDS011;11376;50.932;4.442;2023-08-07T18:58:43;3.35;;;0.90;;
22417;SDS011;11376;50.932;4.442;2023-08-07T19:01:09;2.78;;;0.80;;
22417;SDS011;11376;50.932;4.442;2023-08-07T19:03:35;4.80;;;0.93;;
22417;SDS011;11376;50.932;4.442;2023-08-07T19:06:01;3.75;;;1.10;;
22417;SDS011;11376;50.932;4.442;2023-08-07T19:08:30;3.15;;;1.00;;
22417;SDS011;11376;50.932;4.442;2023-08-07T19:10:57;5.00;;;1.08;;
22417;SDS011;11376;50.932;4.442;2023-08-07T19:13:23;2.72;;;0.88;;
22417;SDS011;11376;50.932;4.442;2023-08-07T19:15:48;2.65;;;1.10;;
22417;SDS011;11376;50.932;4.442;2023-08-07T19:18:14;3.05;;;0.88;;
22417;SDS011;11376;50.932;4.442;2023-08-07T19:20:40;2.75;;;1.10;;
22417;SDS011;11376;50.932;4.442;2023-08-07T19:23:07;5.97;;;1.33;;
22417;SDS011;11376;50.932;4.442;2023-08-07T19:25:35;5.63;;;1.27;;
22417;SDS011;11376;50.932;4.442;2023-08-07T19:28:00;2.40;;;1.00;;
22417;SDS011;11376;50.932;4.442;2023-08-07T19:30:26;6.45;;;1.90;;
22417;SDS011;11376;50.932;4.442;2023-08-07T19:32:52;4.97;;;1.48;;
22417;SDS011;11376;50.932;4.442;2023-08-07T19:35:17;4.93;;;1.60;;
22417;SDS011;11376;50.932;4.442;2023-08-07T19:37:43;6.53;;;1.42;;
22417;SDS011;11376;50.932;4.442;2023-08-07T19:40:09;4.15;;;1.33;;
22417;SDS011;11376;50.932;4.442;2023-08-07T19:42:35;5.63;;;1.67;;
22417;SDS011;11376;50.932;4.442;2023-08-07T19:45:01;6.20;;;1.55;;
22417;SDS011;11376;50.932;4.442;2023-08-07T19:47:27;4.45;;;1.17;;
22417;SDS011;11376;50.932;4.442;2023-08-07T19:49:53;7.50;;;1.42;;
22417;SDS011;11376;50.932;4.442;2023-08-07T19:52:18;5.78;;;1.50;;
22417;SDS011;11376;50.932;4.442;2023-08-07T19:54:44;4.72;;;1.40;;
22417;SDS011;11376;50.932;4.442;2023-08-07T19:57:12;3.58;;;1.38;;
22417;SDS011;11376;50.932;4.442;2023-08-07T19:59:37;5.93;;;1.85;;
22417;SDS011;11376;50.932;4.442;2023-08-07T20:02:03;5.68;;;1.48;;
22417;SDS011;11376;50.932;4.442;2023-08-07T20:04:30;4.10;;;1.50;;
22417;SDS011;11376;50.932;4.442;2023-08-07T20:06:55;5.22;;;1.80;;
22417;SDS011;11376;50.932;4.442;2023-08-07T20:09:21;4.95;;;2.03;;
22417;SDS011;11376;50.932;4.442;2023-08-07T20:11:47;4.82;;;1.70;;
22417;SDS011;11376;50.932;4.442;2023-08-07T20:14:13;4.75;;;1.60;;
22417;SDS011;11376;50.932;4.442;2023-08-07T20:16:39;5.95;;;1.50;;
22417;SDS011;11376;50.932;4.442;2023-08-07T20:19:05;5.10;;;1.70;;
22417;SDS011;11376;50.932;4.442;2023-08-07T20:21:30;5.47;;;1.92;;
22417;SDS011;11376;50.932;4.442;2023-08-07T20:23:56;5.32;;;1.50;;
22417;SDS011;11376;50.932;4.442;2023-08-07T20:26:22;5.38;;;1.63;;
22417;SDS011;11376;50.932;4.442;2023-08-07T20:28:49;7.05;;;1.70;;
22417;SDS011;11376;50.932;4.442;2023-08-07T20:31:15;4.93;;;1.70;;
22417;SDS011;11376;50.932;4.442;2023-08-07T20:33:41;4.68;;;1.80;;
22417;SDS011;11376;50.932;4.442;2023-08-07T20:36:06;6.18;;;2.00;;
22417;SDS011;11376;50.932;4.442;2023-08-07T20:38:32;4.93;;;1.85;;
22417;SDS011;11376;50.932;4.442;2023-08-07T20:40:58;4.53;;;1.92;;
22417;SDS011;11376;50.932;4.442;2023-08-07T20:43:24;5.50;;;1.77;;
22417;SDS011;11376;50.932;4.442;2023-08-07T20:45:49;7.32;;;2.08;;
22417;SDS011;11376;50.932;4.442;2023-08-07T20:48:15;5.88;;;1.80;;
22417;SDS011;11376;50.932;4.442;2023-08-07T20:50:41;7.45;;;1.88;;
22417;SDS011;11376;50.932;4.442;2023-08-07T20:53:07;6.93;;;2.00;;
22417;SDS011;11376;50.932;4.442;2023-08-07T20:55:33;4.45;;;1.83;;
22417;SDS011;11376;50.932;4.442;2023-08-07T20:57:58;3.72;;;1.58;;
22417;SDS011;11376;50.932;4.442;2023-08-07T21:00:25;3.63;;;1.70;;
22417;SDS011;11376;50.932;4.442;2023-08-07T21:02:51;3.63;;;1.88;;
22417;SDS011;11376;50.932;4.442;2023-08-07T21:05:17;4.05;;;1.83;;
22417;SDS011;11376;50.932;4.442;2023-08-07T21:07:43;6.32;;;1.70;;
22417;SDS011;11376;50.932;4.442;2023-08-07T21:10:09;4.28;;;1.80;;
22417;SDS011;11376;50.932;4.442;2023-08-07T21:12:51;3.97;;;1.67;;
22417;SDS011;11376;50.932;4.442;2023-08-07T21:15:17;8.18;;;1.70;;
22417;SDS011;11376;50.932;4.442;2023-08-07T21:17:43;4.93;;;1.70;;
22417;SDS011;11376;50.932;4.442;2023-08-07T21:20:08;5.72;;;1.67;;
22417;SDS011;11376;50.932;4.442;2023-08-07T21:25:23;4.10;;;1.45;;
22417;SDS011;11376;50.932;4.442;2023-08-07T21:27:48;4.68;;;1.50;;
22417;SDS011;11376;50.932;4.442;2023-08-07T21:30:14;5.22;;;1.60;;